createdAt,value
2023-05-08T00:02:22.175Z,18.93
2023-05-08T00:07:25.901Z,18.91
2023-05-08T00:12:29.496Z,18.97
2023-05-08T00:17:34.762Z,18.77
2023-05-08T00:22:38.576Z,18.84
2023-05-08T00:27:42.417Z,18.77
2023-05-08T00:32:47.856Z,18.50
2023-05-08T00:37:50.917Z,18.54
2023-05-08T00:42:54.575Z,18.21
2023-05-08T00:48:00.325Z,17.95
2023-05-08T00:53:05.389Z,17.88
2023-05-08T00:58:09.352Z,17.52
2023-05-08T01:03:15.889Z,17.37
2023-05-08T01:08:19.669Z,16.75
2023-05-08T01:13:45.328Z,16.63
2023-05-08T01:19:10.573Z,16.68
2023-05-08T01:24:53.591Z,16.73
2023-05-08T01:30:20.565Z,16.64
2023-05-08T01:35:33.480Z,16.57
2023-05-08T01:40:46.418Z,16.57
2023-05-08T01:45:53.107Z,16.42
2023-05-08T01:51:04.627Z,16.34
2023-05-08T01:56:12.832Z,16.13
2023-05-08T02:01:19.381Z,16.05
2023-05-08T02:06:25.819Z,15.95
2023-05-08T02:11:31.619Z,15.56
2023-05-08T02:16:35.648Z,15.44
2023-05-08T02:21:45.112Z,15.22
2023-05-08T02:26:50.643Z,15.00
2023-05-08T02:31:56.170Z,14.89
2023-05-08T02:37:04.069Z,14.69
2023-05-08T02:42:09.093Z,14.57
2023-05-08T02:47:22.189Z,14.52
2023-05-08T02:52:33.096Z,14.39
2023-05-08T02:57:44.628Z,14.42
2023-05-08T03:02:53.806Z,14.14
2023-05-08T03:08:04.473Z,13.94
2023-05-08T03:13:10.253Z,13.83
2023-05-08T03:18:18.848Z,14.07
2023-05-08T03:23:27.290Z,14.02
2023-05-08T03:28:32.486Z,13.93
2023-05-08T03:33:39.616Z,13.78
2023-05-08T03:38:46.323Z,13.62
2023-05-08T03:43:51.035Z,13.66
2023-05-08T03:48:55.364Z,13.62
2023-05-08T03:54:00.592Z,13.68
2023-05-08T03:59:15.243Z,13.53
2023-05-08T04:04:22.904Z,13.82
2023-05-08T04:09:35.452Z,13.83
2023-05-08T04:14:46.205Z,13.73
2023-05-08T04:19:56.516Z,13.60
2023-05-08T04:25:06.103Z,13.52
2023-05-08T04:30:11.010Z,13.11
2023-05-08T04:35:15.358Z,12.78
2023-05-08T04:40:20.832Z,12.69
2023-05-08T04:45:24.682Z,12.60
2023-05-08T04:50:28.291Z,12.69
2023-05-08T04:55:33.515Z,12.61
2023-05-08T05:00:37.401Z,12.60
2023-05-08T05:05:41.772Z,12.43
2023-05-08T05:10:47.083Z,12.24
2023-05-08T05:15:50.711Z,12.11
2023-05-08T05:20:54.345Z,12.04
2023-05-08T05:25:59.616Z,11.95
2023-05-08T05:31:03.322Z,11.90
2023-05-08T05:36:07.620Z,11.79
2023-05-08T05:41:12.925Z,11.68
2023-05-08T05:46:16.580Z,11.50
2023-05-08T05:51:20.253Z,11.57
2023-05-08T05:56:25.464Z,11.45
2023-05-08T06:01:29.104Z,11.28
2023-05-08T06:06:32.770Z,11.27
2023-05-08T06:11:38.047Z,11.03
2023-05-08T06:16:41.730Z,10.96
2023-05-08T06:21:45.306Z,10.89
2023-05-08T06:26:50.553Z,10.89
2023-05-08T06:31:54.157Z,10.80
2023-05-08T06:36:57.838Z,10.76
2023-05-08T06:42:03.134Z,10.70
2023-05-08T06:47:06.806Z,10.63
2023-05-08T06:52:10.404Z,10.66
2023-05-08T06:57:15.747Z,10.48
2023-05-08T07:02:19.448Z,10.44
2023-05-08T07:07:23.055Z,10.40
2023-05-08T07:12:29.184Z,10.40
2023-05-08T07:17:32.015Z,10.33
2023-05-08T07:22:35.944Z,10.38
2023-05-08T07:27:41.204Z,10.35
2023-05-08T07:32:44.870Z,10.30
2023-05-08T07:37:48.541Z,10.39
2023-05-08T07:42:54.671Z,10.32
2023-05-08T07:47:58.576Z,10.29
2023-05-08T07:53:02.223Z,10.33
2023-05-08T07:58:09.325Z,10.30
2023-05-08T08:03:13.077Z,10.34
2023-05-08T08:08:16.724Z,10.22
2023-05-08T08:13:22.052Z,10.24
2023-05-08T08:18:25.827Z,10.21
2023-05-08T08:23:29.427Z,10.28
2023-05-08T08:28:34.686Z,10.30
2023-05-08T08:33:38.267Z,10.37
2023-05-08T08:38:41.977Z,10.46
2023-05-08T08:43:48.178Z,10.49
2023-05-08T08:48:51.853Z,10.49
2023-05-08T08:54:04.118Z,10.43
2023-05-08T08:59:09.999Z,10.60
2023-05-08T09:04:13.868Z,10.76
2023-05-08T09:09:17.695Z,11.05
2023-05-08T09:14:23.085Z,11.20
2023-05-08T09:19:29.250Z,11.28
2023-05-08T09:24:46.562Z,11.41
2023-05-08T09:30:00.003Z,11.49
2023-05-08T09:35:03.980Z,11.49
2023-05-08T09:40:21.996Z,11.66
2023-05-08T09:45:32.122Z,11.67
2023-05-08T09:50:36.016Z,11.61
2023-05-08T09:55:49.044Z,11.68
2023-05-08T10:00:54.410Z,11.70
2023-05-08T10:06:13.626Z,11.77
2023-05-08T10:11:17.868Z,11.79
2023-05-08T10:16:24.283Z,11.83
2023-05-08T10:21:30.433Z,11.95
2023-05-08T10:26:34.830Z,11.96
2023-05-08T10:31:41.877Z,11.98
2023-05-08T10:36:46.948Z,11.99
2023-05-08T10:41:50.872Z,11.98
2023-05-08T10:47:04.437Z,11.73
2023-05-08T10:52:19.564Z,11.87
2023-05-08T10:57:23.188Z,11.91
2023-05-08T11:02:31.011Z,11.75
2023-05-08T11:07:56.177Z,11.80
2023-05-08T11:13:00.983Z,11.81
2023-05-08T11:18:07.903Z,11.75
2023-05-08T11:23:29.716Z,11.69
2023-05-08T11:28:39.499Z,11.59
2023-05-08T11:33:44.899Z,11.53
2023-05-08T11:39:08.192Z,11.68
2023-05-08T11:44:19.833Z,11.69
2023-05-08T11:49:29.708Z,11.70
2023-05-08T11:54:33.994Z,11.81
2023-05-08T11:59:37.701Z,11.78
2023-05-08T12:04:48.871Z,11.80
2023-05-08T12:09:52.604Z,11.70
2023-05-08T12:14:56.277Z,11.79
2023-05-08T12:20:11.393Z,11.88
2023-05-08T12:25:17.278Z,11.91
2023-05-08T12:30:21.432Z,11.94
2023-05-08T12:35:28.229Z,11.89
2023-05-08T12:40:34.057Z,11.72
2023-05-08T13:16:28.404Z,11.74
2023-05-08T13:21:31.318Z,11.66
2023-05-08T13:26:34.955Z,11.55
2023-05-08T13:31:40.317Z,11.48
2023-05-08T15:17:45.681Z,12.41
2023-05-08T15:22:49.453Z,12.49
2023-05-08T15:27:53.120Z,12.57
2023-05-08T15:32:58.458Z,12.63
2023-05-08T15:38:02.094Z,12.93
2023-05-08T15:43:05.765Z,13.07
2023-05-08T15:48:11.025Z,13.39
2023-05-08T15:53:14.656Z,13.75
2023-05-08T15:58:18.301Z,14.47
2023-05-08T16:03:23.653Z,14.44
2023-05-08T16:08:27.372Z,15.88
2023-05-08T16:13:31.042Z,16.83
2023-05-08T16:18:36.297Z,17.36
2023-05-08T16:23:39.978Z,17.96
2023-05-08T16:28:43.580Z,18.28
2023-05-08T16:33:48.852Z,18.78
2023-05-08T16:38:52.510Z,19.21
2023-05-08T16:43:56.124Z,19.86
2023-05-08T16:49:01.404Z,20.10
2023-05-08T16:54:05.165Z,20.16
2023-05-08T16:59:08.789Z,20.24
2023-05-08T17:04:14.139Z,20.53
2023-05-08T17:09:17.727Z,19.37
2023-05-08T17:14:21.330Z,19.29
2023-05-08T17:19:26.701Z,19.97
2023-05-08T17:24:31.392Z,20.44
2023-05-08T17:29:35.105Z,20.75
2023-05-08T17:34:40.414Z,21.13
2023-05-08T17:39:44.139Z,21.21
2023-05-08T17:44:47.834Z,21.56
2023-05-08T17:49:53.089Z,21.38
2023-05-08T17:54:56.761Z,21.89
2023-05-08T18:00:00.369Z,22.13
2023-05-08T18:05:06.184Z,22.07
2023-05-08T18:10:10.548Z,21.69
2023-05-08T18:15:14.477Z,22.30
2023-05-08T18:20:20.122Z,22.15
2023-05-08T18:25:23.716Z,21.87
2023-05-08T18:30:27.342Z,21.64
2023-05-08T18:35:32.627Z,21.83
2023-05-08T18:40:35.459Z,21.93
2023-05-08T18:45:40.027Z,22.25
2023-05-08T18:50:45.325Z,22.44
2023-05-08T18:55:48.952Z,22.15
2023-05-08T19:00:56.265Z,22.22
2023-05-08T19:06:01.600Z,21.77
2023-05-08T19:11:05.228Z,21.98
2023-05-08T19:16:08.911Z,21.65
2023-05-08T19:21:15.519Z,21.90
2023-05-08T19:26:19.174Z,22.03
2023-05-08T19:31:22.883Z,22.13
2023-05-08T19:36:29.104Z,21.88
2023-05-08T19:41:32.705Z,21.59
2023-05-08T19:46:36.386Z,21.89
2023-05-08T19:51:41.712Z,22.23
2023-05-08T19:56:44.547Z,22.30
2023-05-08T20:01:48.151Z,21.86
2023-05-08T20:06:53.433Z,21.69
2023-05-08T20:11:56.284Z,21.23
2023-05-08T20:16:59.916Z,21.74
2023-05-08T20:22:06.064Z,21.88
2023-05-08T20:27:09.734Z,21.95
2023-05-08T20:32:13.465Z,22.04
2023-05-08T20:37:18.788Z,22.09
2023-05-08T20:42:21.662Z,22.02
2023-05-08T20:47:25.302Z,21.76
2023-05-08T20:52:30.549Z,21.79
2023-05-08T20:57:33.395Z,21.87
2023-05-08T21:02:37.013Z,21.57
2023-05-08T21:07:42.284Z,21.68
2023-05-08T21:12:45.155Z,21.44
2023-05-08T21:17:49.612Z,21.26
2023-05-08T21:22:54.909Z,21.27
2023-05-08T21:27:57.765Z,21.12
2023-05-08T21:33:01.413Z,20.92
2023-05-08T21:38:06.704Z,21.09
2023-05-08T21:43:09.630Z,21.15
2023-05-08T21:48:13.288Z,21.07
2023-05-08T21:53:18.553Z,21.23
2023-05-08T21:58:21.393Z,21.16
2023-05-08T22:03:25.109Z,21.14
2023-05-08T22:08:30.628Z,21.18
2023-05-08T22:13:34.255Z,21.11
2023-05-08T22:18:37.871Z,20.94
2023-05-08T22:23:44.077Z,21.02
2023-05-08T22:28:47.680Z,20.91
2023-05-08T22:33:51.253Z,21.04
2023-05-08T22:38:56.551Z,21.07
2023-05-08T22:44:00.076Z,20.52
2023-05-08T22:49:03.771Z,20.14
2023-05-08T22:54:09.081Z,20.11
2023-05-08T22:59:11.918Z,20.16
2023-05-08T23:04:15.578Z,19.48
2023-05-08T23:09:20.872Z,19.04
2023-05-08T23:14:25.220Z,19.00
2023-05-08T23:19:28.814Z,18.98
2023-05-08T23:24:36.006Z,19.24
2023-05-08T23:29:39.606Z,19.26
2023-05-08T23:34:43.747Z,19.21
2023-05-08T23:39:49.020Z,19.15
2023-05-08T23:44:52.667Z,18.95
2023-05-08T23:49:56.331Z,18.84
2023-05-08T23:55:02.580Z,18.58
